Decoded Metar for PAVA (Chevak in AK, USA) (IATA:N/A) | Meteo·Mobile Aviation Weather
aviador You're here:

PAVA Decoded Metar

Chevak in AK, USA
Report Time2019-09-21 07:56:00
UTC Time2019-09-21 08:59:31
Flight Rules vfr VFR
Wind120° at 04 kt
W.Decomp.*RWY 02: 0.2 kt HW 4.0 kt RCW
Visibility9999 m
Phenomena:N/A
Clouds:N/A
Expected CloudBase > 1,200 ft AGL from Temp-Dew spread
CeilingNone
Temp04°C (ISA -11)
Dew Point01°C (81% RH)
AAT0.7°C
QNH1003 hPa
Density Alt-807 ft
Elevation75 ft
Report Wrong Elevation
Raw Report
PAVA 210756Z AUTO 12004KT 10SM CLR 04/01 A2962 RMK AO2 SLP113
T00440011 400890022 PNO $=

Extra information for PAVA:More info

Airport Information Weather charts Add Link Nearby Venues Social comments

AIRNAV info for PAVA